sensor_id;sensor_type;location;lat;lon;timestamp;P1;durP1;ratioP1;P2;durP2;ratioP2
59074;SDS011;44860;53.020;6.738;2023-04-12T00:00:37;12.43;;;2.92;;
59074;SDS011;44860;53.020;6.738;2023-04-12T00:03:04;10.55;;;3.10;;
59074;SDS011;44860;53.020;6.738;2023-04-12T00:05:34;11.27;;;2.95;;
59074;SDS011;44860;53.020;6.738;2023-04-12T00:08:01;7.90;;;3.05;;
59074;SDS011;44860;53.020;6.738;2023-04-12T00:10:29;10.32;;;3.10;;
59074;SDS011;44860;53.020;6.738;2023-04-12T00:12:55;9.00;;;2.97;;
59074;SDS011;44860;53.020;6.738;2023-04-12T00:15:20;11.70;;;2.95;;
59074;SDS011;44860;53.020;6.738;2023-04-12T00:17:46;9.02;;;3.05;;
59074;SDS011;44860;53.020;6.738;2023-04-12T00:20:12;10.57;;;3.45;;
59074;SDS011;44860;53.020;6.738;2023-04-12T00:22:43;10.73;;;3.30;;
59074;SDS011;44860;53.020;6.738;2023-04-12T00:25:09;12.88;;;3.03;;
59074;SDS011;44860;53.020;6.738;2023-04-12T00:27:35;12.07;;;2.92;;
59074;SDS011;44860;53.020;6.738;2023-04-12T00:30:01;11.02;;;2.92;;
59074;SDS011;44860;53.020;6.738;2023-04-12T00:32:27;9.32;;;2.83;;
59074;SDS011;44860;53.020;6.738;2023-04-12T00:34:54;13.55;;;3.45;;
59074;SDS011;44860;53.020;6.738;2023-04-12T00:37:20;7.43;;;2.95;;
59074;SDS011;44860;53.020;6.738;2023-04-12T00:39:45;12.98;;;3.30;;
59074;SDS011;44860;53.020;6.738;2023-04-12T00:42:11;8.98;;;3.10;;
59074;SDS011;44860;53.020;6.738;2023-04-12T00:44:37;10.73;;;3.10;;
59074;SDS011;44860;53.020;6.738;2023-04-12T00:47:03;9.25;;;2.72;;
59074;SDS011;44860;53.020;6.738;2023-04-12T00:49:32;10.15;;;2.80;;
59074;SDS011;44860;53.020;6.738;2023-04-12T00:51:59;9.70;;;2.70;;
59074;SDS011;44860;53.020;6.738;2023-04-12T00:54:29;10.25;;;3.13;;
59074;SDS011;44860;53.020;6.738;2023-04-12T00:56:55;10.95;;;3.13;;
59074;SDS011;44860;53.020;6.738;2023-04-12T00:59:24;12.93;;;3.33;;
59074;SDS011;44860;53.020;6.738;2023-04-12T01:01:50;9.65;;;2.88;;
59074;SDS011;44860;53.020;6.738;2023-04-12T01:04:18;11.52;;;3.35;;
59074;SDS011;44860;53.020;6.738;2023-04-12T01:12:39;10.52;;;3.08;;
59074;SDS011;44860;53.020;6.738;2023-04-12T01:15:36;9.10;;;3.20;;
59074;SDS011;44860;53.020;6.738;2023-04-12T01:18:08;10.43;;;2.90;;
59074;SDS011;44860;53.020;6.738;2023-04-12T01:20:42;11.27;;;2.95;;
59074;SDS011;44860;53.020;6.738;2023-04-12T01:23:31;8.98;;;2.85;;
59074;SDS011;44860;53.020;6.738;2023-04-12T01:28:57;9.25;;;3.00;;
59074;SDS011;44860;53.020;6.738;2023-04-12T01:31:25;10.57;;;3.05;;
59074;SDS011;44860;53.020;6.738;2023-04-12T01:33:53;9.30;;;3.05;;
59074;SDS011;44860;53.020;6.738;2023-04-12T01:36:21;10.23;;;3.13;;
59074;SDS011;44860;53.020;6.738;2023-04-12T01:38:51;10.73;;;3.25;;
59074;SDS011;44860;53.020;6.738;2023-04-12T01:41:21;10.38;;;3.30;;
59074;SDS011;44860;53.020;6.738;2023-04-12T01:43:47;10.70;;;3.38;;
59074;SDS011;44860;53.020;6.738;2023-04-12T01:46:17;11.20;;;3.35;;
59074;SDS011;44860;53.020;6.738;2023-04-12T01:48:50;10.45;;;3.60;;
59074;SDS011;44860;53.020;6.738;2023-04-12T01:51:32;12.57;;;3.38;;
59074;SDS011;44860;53.020;6.738;2023-04-12T01:54:12;11.25;;;3.25;;
59074;SDS011;44860;53.020;6.738;2023-04-12T01:56:45;13.68;;;3.50;;
59074;SDS011;44860;53.020;6.738;2023-04-12T01:59:14;9.77;;;3.17;;
59074;SDS011;44860;53.020;6.738;2023-04-12T02:01:42;11.40;;;3.20;;
59074;SDS011;44860;53.020;6.738;2023-04-12T02:04:09;11.00;;;3.25;;
59074;SDS011;44860;53.020;6.738;2023-04-12T02:06:35;8.93;;;2.92;;
59074;SDS011;44860;53.020;6.738;2023-04-12T02:09:02;12.60;;;3.08;;
59074;SDS011;44860;53.020;6.738;2023-04-12T02:11:30;7.80;;;2.97;;
59074;SDS011;44860;53.020;6.738;2023-04-12T02:13:56;11.30;;;3.50;;
59074;SDS011;44860;53.020;6.738;2023-04-12T02:16:22;12.27;;;3.20;;
59074;SDS011;44860;53.020;6.738;2023-04-12T02:25:38;13.40;;;3.83;;
59074;SDS011;44860;53.020;6.738;2023-04-12T02:28:05;12.70;;;3.78;;
59074;SDS011;44860;53.020;6.738;2023-04-12T02:30:34;12.63;;;3.92;;
59074;SDS011;44860;53.020;6.738;2023-04-12T02:32:59;14.13;;;3.85;;
59074;SDS011;44860;53.020;6.738;2023-04-12T02:35:26;10.45;;;3.83;;
59074;SDS011;44860;53.020;6.738;2023-04-12T02:37:51;14.23;;;3.20;;
59074;SDS011;44860;53.020;6.738;2023-04-12T02:40:21;12.35;;;3.40;;
59074;SDS011;44860;53.020;6.738;2023-04-12T02:42:46;11.75;;;3.22;;
59074;SDS011;44860;53.020;6.738;2023-04-12T02:45:12;8.25;;;3.10;;
59074;SDS011;44860;53.020;6.738;2023-04-12T02:47:38;10.23;;;3.17;;
59074;SDS011;44860;53.020;6.738;2023-04-12T02:50:05;7.43;;;2.92;;
59074;SDS011;44860;53.020;6.738;2023-04-12T02:52:31;9.02;;;3.10;;
59074;SDS011;44860;53.020;6.738;2023-04-12T02:54:57;10.38;;;2.88;;
59074;SDS011;44860;53.020;6.738;2023-04-12T02:57:23;9.45;;;3.05;;
59074;SDS011;44860;53.020;6.738;2023-04-12T02:59:50;7.95;;;2.55;;
59074;SDS011;44860;53.020;6.738;2023-04-12T03:02:18;6.50;;;2.50;;
59074;SDS011;44860;53.020;6.738;2023-04-12T03:04:44;8.55;;;2.63;;
59074;SDS011;44860;53.020;6.738;2023-04-12T03:07:11;11.25;;;2.83;;
59074;SDS011;44860;53.020;6.738;2023-04-12T03:09:39;12.05;;;2.58;;
59074;SDS011;44860;53.020;6.738;2023-04-12T03:12:07;8.93;;;2.78;;
59074;SDS011;44860;53.020;6.738;2023-04-12T03:14:32;7.05;;;2.60;;
59074;SDS011;44860;53.020;6.738;2023-04-12T03:16:58;6.05;;;2.10;;
59074;SDS011;44860;53.020;6.738;2023-04-12T03:19:24;8.32;;;2.50;;
59074;SDS011;44860;53.020;6.738;2023-04-12T03:21:49;7.43;;;2.38;;
59074;SDS011;44860;53.020;6.738;2023-04-12T03:24:15;6.07;;;2.15;;
59074;SDS011;44860;53.020;6.738;2023-04-12T03:26:42;6.45;;;2.17;;
59074;SDS011;44860;53.020;6.738;2023-04-12T03:29:08;6.97;;;2.28;;
59074;SDS011;44860;53.020;6.738;2023-04-12T03:31:34;12.18;;;2.80;;
59074;SDS011;44860;53.020;6.738;2023-04-12T03:34:00;4.93;;;1.90;;
59074;SDS011;44860;53.020;6.738;2023-04-12T03:36:26;4.85;;;2.28;;
59074;SDS011;44860;53.020;6.738;2023-04-12T03:38:52;4.65;;;1.90;;
59074;SDS011;44860;53.020;6.738;2023-04-12T03:41:21;6.22;;;1.90;;
59074;SDS011;44860;53.020;6.738;2023-04-12T03:43:48;6.97;;;1.98;;
59074;SDS011;44860;53.020;6.738;2023-04-12T03:46:13;7.65;;;2.17;;
59074;SDS011;44860;53.020;6.738;2023-04-12T03:48:39;7.72;;;2.10;;
59074;SDS011;44860;53.020;6.738;2023-04-12T03:51:09;8.48;;;2.40;;
59074;SDS011;44860;53.020;6.738;2023-04-12T03:53:39;8.10;;;2.35;;
59074;SDS011;44860;53.020;6.738;2023-04-12T03:56:05;8.65;;;2.33;;
59074;SDS011;44860;53.020;6.738;2023-04-12T03:58:31;8.80;;;2.50;;
59074;SDS011;44860;53.020;6.738;2023-04-12T04:01:01;8.13;;;2.53;;
59074;SDS011;44860;53.020;6.738;2023-04-12T04:03:33;10.43;;;2.63;;
59074;SDS011;44860;53.020;6.738;2023-04-12T04:06:00;9.10;;;2.88;;
59074;SDS011;44860;53.020;6.738;2023-04-12T04:08:26;9.65;;;2.35;;
59074;SDS011;44860;53.020;6.738;2023-04-12T04:10:52;8.48;;;3.15;;
59074;SDS011;44860;53.020;6.738;2023-04-12T04:13:18;6.00;;;2.35;;
59074;SDS011;44860;53.020;6.738;2023-04-12T04:15:44;6.53;;;2.72;;
59074;SDS011;44860;53.020;6.738;2023-04-12T04:18:10;6.55;;;2.60;;
59074;SDS011;44860;53.020;6.738;2023-04-12T04:20:36;5.18;;;2.30;;
59074;SDS011;44860;53.020;6.738;2023-04-12T04:23:01;10.20;;;2.97;;
59074;SDS011;44860;53.020;6.738;2023-04-12T04:25:27;7.97;;;2.63;;
59074;SDS011;44860;53.020;6.738;2023-04-12T04:27:57;9.60;;;3.53;;
59074;SDS011;44860;53.020;6.738;2023-04-12T04:30:23;9.65;;;3.33;;
59074;SDS011;44860;53.020;6.738;2023-04-12T04:32:54;8.43;;;3.45;;
59074;SDS011;44860;53.020;6.738;2023-04-12T04:35:19;10.30;;;3.42;;
59074;SDS011;44860;53.020;6.738;2023-04-12T04:37:45;10.93;;;3.42;;
59074;SDS011;44860;53.020;6.738;2023-04-12T04:40:11;10.73;;;3.42;;
59074;SDS011;44860;53.020;6.738;2023-04-12T04:42:37;9.45;;;3.20;;
59074;SDS011;44860;53.020;6.738;2023-04-12T04:45:06;10.52;;;3.38;;
59074;SDS011;44860;53.020;6.738;2023-04-12T04:47:40;15.02;;;3.83;;
59074;SDS011;44860;53.020;6.738;2023-04-12T04:50:06;8.52;;;3.50;;
59074;SDS011;44860;53.020;6.738;2023-04-12T04:52:32;10.05;;;3.45;;
59074;SDS011;44860;53.020;6.738;2023-04-12T04:54:58;11.27;;;3.60;;
59074;SDS011;44860;53.020;6.738;2023-04-12T04:57:23;8.73;;;3.33;;
59074;SDS011;44860;53.020;6.738;2023-04-12T04:59:53;8.40;;;3.25;;
59074;SDS011;44860;53.020;6.738;2023-04-12T05:02:19;10.68;;;3.78;;
59074;SDS011;44860;53.020;6.738;2023-04-12T05:04:45;8.65;;;3.22;;
59074;SDS011;44860;53.020;6.738;2023-04-12T05:07:10;8.32;;;3.45;;
59074;SDS011;44860;53.020;6.738;2023-04-12T05:09:38;9.05;;;3.42;;
59074;SDS011;44860;53.020;6.738;2023-04-12T05:12:03;9.85;;;3.20;;
59074;SDS011;44860;53.020;6.738;2023-04-12T05:14:29;7.65;;;2.90;;
59074;SDS011;44860;53.020;6.738;2023-04-12T05:16:55;8.18;;;3.15;;
59074;SDS011;44860;53.020;6.738;2023-04-12T05:19:21;7.90;;;2.90;;
59074;SDS011;44860;53.020;6.738;2023-04-12T05:21:46;8.25;;;2.80;;
59074;SDS011;44860;53.020;6.738;2023-04-12T05:24:12;9.48;;;2.90;;
59074;SDS011;44860;53.020;6.738;2023-04-12T05:26:37;9.43;;;3.17;;
59074;SDS011;44860;53.020;6.738;2023-04-12T05:29:03;10.73;;;2.72;;
59074;SDS011;44860;53.020;6.738;2023-04-12T05:31:30;7.15;;;2.83;;
59074;SDS011;44860;53.020;6.738;2023-04-12T05:33:56;11.20;;;2.95;;
59074;SDS011;44860;53.020;6.738;2023-04-12T05:36:22;11.73;;;3.38;;
59074;SDS011;44860;53.020;6.738;2023-04-12T05:38:47;10.70;;;3.10;;
59074;SDS011;44860;53.020;6.738;2023-04-12T05:41:13;6.75;;;2.53;;
59074;SDS011;44860;53.020;6.738;2023-04-12T05:43:38;8.63;;;3.00;;
59074;SDS011;44860;53.020;6.738;2023-04-12T05:46:04;8.55;;;2.85;;
59074;SDS011;44860;53.020;6.738;2023-04-12T05:48:33;8.25;;;2.78;;
59074;SDS011;44860;53.020;6.738;2023-04-12T05:50:58;9.48;;;2.90;;
59074;SDS011;44860;53.020;6.738;2023-04-12T05:53:26;9.40;;;2.70;;
59074;SDS011;44860;53.020;6.738;2023-04-12T05:55:53;9.23;;;2.95;;
59074;SDS011;44860;53.020;6.738;2023-04-12T05:58:19;10.73;;;3.50;;
59074;SDS011;44860;53.020;6.738;2023-04-12T06:00:45;8.15;;;2.78;;
59074;SDS011;44860;53.020;6.738;2023-04-12T06:03:10;12.18;;;2.92;;
59074;SDS011;44860;53.020;6.738;2023-04-12T06:05:36;7.97;;;3.05;;
59074;SDS011;44860;53.020;6.738;2023-04-12T06:08:05;10.30;;;2.80;;
59074;SDS011;44860;53.020;6.738;2023-04-12T06:10:32;7.63;;;2.53;;
59074;SDS011;44860;53.020;6.738;2023-04-12T06:12:58;8.63;;;2.97;;
59074;SDS011;44860;53.020;6.738;2023-04-12T06:15:23;7.38;;;2.90;;
59074;SDS011;44860;53.020;6.738;2023-04-12T06:17:50;7.13;;;2.75;;
59074;SDS011;44860;53.020;6.738;2023-04-12T06:20:15;6.43;;;3.05;;
59074;SDS011;44860;53.020;6.738;2023-04-12T06:22:44;6.32;;;3.00;;
59074;SDS011;44860;53.020;6.738;2023-04-12T06:25:10;8.43;;;2.85;;
59074;SDS011;44860;53.020;6.738;2023-04-12T06:27:36;9.02;;;2.97;;
59074;SDS011;44860;53.020;6.738;2023-04-12T06:30:01;8.02;;;3.08;;
59074;SDS011;44860;53.020;6.738;2023-04-12T06:32:27;8.13;;;3.28;;
59074;SDS011;44860;53.020;6.738;2023-04-12T06:34:53;9.20;;;3.60;;
59074;SDS011;44860;53.020;6.738;2023-04-12T06:37:19;6.20;;;3.22;;
59074;SDS011;44860;53.020;6.738;2023-04-12T06:39:45;7.18;;;3.20;;
59074;SDS011;44860;53.020;6.738;2023-04-12T06:42:12;7.00;;;3.17;;
59074;SDS011;44860;53.020;6.738;2023-04-12T06:44:37;8.90;;;3.13;;
59074;SDS011;44860;53.020;6.738;2023-04-12T06:47:03;9.02;;;3.40;;
59074;SDS011;44860;53.020;6.738;2023-04-12T06:49:29;11.18;;;3.30;;
59074;SDS011;44860;53.020;6.738;2023-04-12T06:51:55;8.32;;;3.53;;
59074;SDS011;44860;53.020;6.738;2023-04-12T06:54:20;8.75;;;3.40;;
59074;SDS011;44860;53.020;6.738;2023-04-12T06:56:46;8.65;;;3.30;;
59074;SDS011;44860;53.020;6.738;2023-04-12T06:59:15;10.15;;;3.05;;
59074;SDS011;44860;53.020;6.738;2023-04-12T07:01:42;7.45;;;3.58;;
59074;SDS011;44860;53.020;6.738;2023-04-12T07:04:07;10.80;;;3.67;;
59074;SDS011;44860;53.020;6.738;2023-04-12T07:06:33;7.95;;;3.50;;
59074;SDS011;44860;53.020;6.738;2023-04-12T07:08:59;8.75;;;3.60;;
59074;SDS011;44860;53.020;6.738;2023-04-12T07:11:24;9.07;;;3.45;;
59074;SDS011;44860;53.020;6.738;2023-04-12T07:13:51;8.18;;;3.47;;
59074;SDS011;44860;53.020;6.738;2023-04-12T07:16:17;9.70;;;3.40;;
59074;SDS011;44860;53.020;6.738;2023-04-12T07:18:42;7.97;;;3.22;;
59074;SDS011;44860;53.020;6.738;2023-04-12T07:21:08;8.05;;;3.42;;
59074;SDS011;44860;53.020;6.738;2023-04-12T07:23:38;7.10;;;3.35;;
59074;SDS011;44860;53.020;6.738;2023-04-12T07:26:04;6.90;;;3.63;;
59074;SDS011;44860;53.020;6.738;2023-04-12T07:28:30;7.38;;;3.33;;
59074;SDS011;44860;53.020;6.738;2023-04-12T07:30:56;10.35;;;3.40;;
59074;SDS011;44860;53.020;6.738;2023-04-12T07:33:23;7.78;;;3.78;;
59074;SDS011;44860;53.020;6.738;2023-04-12T07:35:50;9.43;;;3.42;;
59074;SDS011;44860;53.020;6.738;2023-04-12T07:38:15;8.23;;;3.40;;
59074;SDS011;44860;53.020;6.738;2023-04-12T07:40:41;8.02;;;3.40;;
59074;SDS011;44860;53.020;6.738;2023-04-12T07:43:06;8.90;;;3.35;;
59074;SDS011;44860;53.020;6.738;2023-04-12T07:45:34;7.38;;;3.40;;
59074;SDS011;44860;53.020;6.738;2023-04-12T07:48:01;7.10;;;3.30;;
59074;SDS011;44860;53.020;6.738;2023-04-12T07:50:27;8.25;;;3.60;;
59074;SDS011;44860;53.020;6.738;2023-04-12T07:52:53;6.00;;;3.50;;
59074;SDS011;44860;53.020;6.738;2023-04-12T07:55:22;6.72;;;3.70;;
59074;SDS011;44860;53.020;6.738;2023-04-12T07:57:47;6.00;;;3.70;;
59074;SDS011;44860;53.020;6.738;2023-04-12T08:00:13;5.75;;;3.75;;
59074;SDS011;44860;53.020;6.738;2023-04-12T08:02:40;6.55;;;3.60;;
59074;SDS011;44860;53.020;6.738;2023-04-12T08:05:06;8.23;;;3.83;;
59074;SDS011;44860;53.020;6.738;2023-04-12T08:07:32;6.03;;;3.50;;
59074;SDS011;44860;53.020;6.738;2023-04-12T08:09:58;7.22;;;3.50;;
59074;SDS011;44860;53.020;6.738;2023-04-12T08:12:24;7.03;;;3.80;;
59074;SDS011;44860;53.020;6.738;2023-04-12T08:14:50;7.03;;;4.13;;
59074;SDS011;44860;53.020;6.738;2023-04-12T08:17:15;6.93;;;3.92;;
59074;SDS011;44860;53.020;6.738;2023-04-12T08:19:41;6.88;;;4.28;;
59074;SDS011;44860;53.020;6.738;2023-04-12T08:22:07;6.13;;;4.10;;
59074;SDS011;44860;53.020;6.738;2023-04-12T08:24:33;6.45;;;4.13;;
59074;SDS011;44860;53.020;6.738;2023-04-12T08:26:59;5.28;;;3.97;;
59074;SDS011;44860;53.020;6.738;2023-04-12T08:29:25;8.73;;;4.70;;
59074;SDS011;44860;53.020;6.738;2023-04-12T08:31:51;7.68;;;3.88;;
59074;SDS011;44860;53.020;6.738;2023-04-12T08:34:17;8.50;;;4.45;;
59074;SDS011;44860;53.020;6.738;2023-04-12T08:36:44;7.82;;;4.57;;
59074;SDS011;44860;53.020;6.738;2023-04-12T08:39:10;8.18;;;4.30;;
59074;SDS011;44860;53.020;6.738;2023-04-12T08:41:35;6.75;;;4.00;;
59074;SDS011;44860;53.020;6.738;2023-04-12T08:44:03;5.35;;;4.00;;
59074;SDS011;44860;53.020;6.738;2023-04-12T08:46:29;8.15;;;4.63;;
59074;SDS011;44860;53.020;6.738;2023-04-12T08:48:54;6.35;;;4.43;;
59074;SDS011;44860;53.020;6.738;2023-04-12T08:51:22;6.32;;;4.10;;
59074;SDS011;44860;53.020;6.738;2023-04-12T08:53:50;5.78;;;4.40;;
59074;SDS011;44860;53.020;6.738;2023-04-12T08:56:18;6.18;;;4.57;;
59074;SDS011;44860;53.020;6.738;2023-04-12T08:58:45;6.60;;;4.45;;
59074;SDS011;44860;53.020;6.738;2023-04-12T09:01:15;7.00;;;4.13;;
59074;SDS011;44860;53.020;6.738;2023-04-12T09:03:42;5.07;;;3.90;;
59074;SDS011;44860;53.020;6.738;2023-04-12T09:06:09;6.78;;;4.25;;
59074;SDS011;44860;53.020;6.738;2023-04-12T09:08:35;7.22;;;4.95;;
59074;SDS011;44860;53.020;6.738;2023-04-12T09:11:01;9.13;;;5.00;;
59074;SDS011;44860;53.020;6.738;2023-04-12T09:13:54;6.15;;;4.32;;
59074;SDS011;44860;53.020;6.738;2023-04-12T09:16:37;6.07;;;4.72;;
59074;SDS011;44860;53.020;6.738;2023-04-12T09:19:04;6.07;;;4.85;;
59074;SDS011;44860;53.020;6.738;2023-04-12T09:21:31;7.82;;;4.85;;
59074;SDS011;44860;53.020;6.738;2023-04-12T09:24:02;5.88;;;4.50;;
59074;SDS011;44860;53.020;6.738;2023-04-12T09:26:28;5.93;;;4.75;;
59074;SDS011;44860;53.020;6.738;2023-04-12T09:28:55;6.40;;;4.57;;
59074;SDS011;44860;53.020;6.738;2023-04-12T09:31:21;6.85;;;5.00;;
59074;SDS011;44860;53.020;6.738;2023-04-12T09:33:46;6.93;;;5.35;;
59074;SDS011;44860;53.020;6.738;2023-04-12T09:36:12;6.65;;;5.28;;
59074;SDS011;44860;53.020;6.738;2023-04-12T09:38:39;5.53;;;5.03;;
59074;SDS011;44860;53.020;6.738;2023-04-12T09:41:14;7.43;;;5.70;;
59074;SDS011;44860;53.020;6.738;2023-04-12T09:43:42;7.03;;;5.70;;
59074;SDS011;44860;53.020;6.738;2023-04-12T09:46:09;6.65;;;5.68;;
59074;SDS011;44860;53.020;6.738;2023-04-12T09:48:39;8.90;;;6.40;;
59074;SDS011;44860;53.020;6.738;2023-04-12T09:51:05;6.75;;;6.03;;
59074;SDS011;44860;53.020;6.738;2023-04-12T09:53:32;7.63;;;6.32;;
59074;SDS011;44860;53.020;6.738;2023-04-12T09:56:01;7.43;;;6.03;;
59074;SDS011;44860;53.020;6.738;2023-04-12T09:58:28;6.85;;;6.15;;
59074;SDS011;44860;53.020;6.738;2023-04-12T10:00:56;8.02;;;7.05;;
59074;SDS011;44860;53.020;6.738;2023-04-12T10:03:24;7.70;;;6.65;;
59074;SDS011;44860;53.020;6.738;2023-04-12T10:05:50;9.27;;;6.80;;
59074;SDS011;44860;53.020;6.738;2023-04-12T10:08:16;8.50;;;7.55;;
59074;SDS011;44860;53.020;6.738;2023-04-12T10:10:43;8.98;;;7.22;;
59074;SDS011;44860;53.020;6.738;2023-04-12T10:13:10;10.00;;;8.05;;
59074;SDS011;44860;53.020;6.738;2023-04-12T10:15:38;9.23;;;7.43;;
59074;SDS011;44860;53.020;6.738;2023-04-12T10:18:04;10.07;;;7.43;;
59074;SDS011;44860;53.020;6.738;2023-04-12T10:20:34;7.85;;;7.05;;
59074;SDS011;44860;53.020;6.738;2023-04-12T10:23:04;8.10;;;6.78;;
59074;SDS011;44860;53.020;6.738;2023-04-12T10:25:30;8.15;;;6.93;;
59074;SDS011;44860;53.020;6.738;2023-04-12T10:28:13;8.05;;;7.25;;
59074;SDS011;44860;53.020;6.738;2023-04-12T10:30:39;8.00;;;6.82;;
59074;SDS011;44860;53.020;6.738;2023-04-12T10:38:23;7.63;;;6.78;;
59074;SDS011;44860;53.020;6.738;2023-04-12T10:41:13;10.20;;;6.65;;
59074;SDS011;44860;53.020;6.738;2023-04-12T10:43:46;8.07;;;6.82;;
59074;SDS011;44860;53.020;6.738;2023-04-12T10:46:55;10.07;;;7.07;;
59074;SDS011;44860;53.020;6.738;2023-04-12T10:49:34;9.98;;;6.80;;
59074;SDS011;44860;53.020;6.738;2023-04-12T10:56:51;10.13;;;6.55;;
59074;SDS011;44860;53.020;6.738;2023-04-12T10:59:17;10.98;;;6.60;;
59074;SDS011;44860;53.020;6.738;2023-04-12T11:04:27;10.95;;;6.68;;
59074;SDS011;44860;53.020;6.738;2023-04-12T11:06:59;13.27;;;6.80;;
59074;SDS011;44860;53.020;6.738;2023-04-12T11:09:38;10.90;;;6.40;;
59074;SDS011;44860;53.020;6.738;2023-04-12T11:14:36;12.55;;;6.10;;
59074;SDS011;44860;53.020;6.738;2023-04-12T11:19:31;10.13;;;6.38;;
59074;SDS011;44860;53.020;6.738;2023-04-12T11:22:02;11.18;;;5.90;;
59074;SDS011;44860;53.020;6.738;2023-04-12T11:24:32;11.15;;;5.32;;
59074;SDS011;44860;53.020;6.738;2023-04-12T11:26:59;12.25;;;5.43;;
59074;SDS011;44860;53.020;6.738;2023-04-12T11:29:25;11.50;;;4.85;;
59074;SDS011;44860;53.020;6.738;2023-04-12T11:31:51;11.50;;;4.20;;
59074;SDS011;44860;53.020;6.738;2023-04-12T11:34:20;11.90;;;4.35;;
59074;SDS011;44860;53.020;6.738;2023-04-12T11:36:55;11.32;;;4.30;;
59074;SDS011;44860;53.020;6.738;2023-04-12T11:39:23;12.25;;;4.20;;
59074;SDS011;44860;53.020;6.738;2023-04-12T11:41:54;17.67;;;4.72;;
59074;SDS011;44860;53.020;6.738;2023-04-12T11:44:22;12.35;;;4.20;;
59074;SDS011;44860;53.020;6.738;2023-04-12T11:46:48;11.95;;;4.15;;
59074;SDS011;44860;53.020;6.738;2023-04-12T11:49:14;9.10;;;4.00;;
59074;SDS011;44860;53.020;6.738;2023-04-12T11:51:41;11.52;;;3.80;;
59074;SDS011;44860;53.020;6.738;2023-04-12T11:54:07;8.60;;;3.50;;
59074;SDS011;44860;53.020;6.738;2023-04-12T11:56:35;12.48;;;4.03;;
59074;SDS011;44860;53.020;6.738;2023-04-12T11:59:02;11.13;;;3.55;;
59074;SDS011;44860;53.020;6.738;2023-04-12T12:01:28;10.38;;;3.17;;
59074;SDS011;44860;53.020;6.738;2023-04-12T12:03:54;10.82;;;3.30;;
59074;SDS011;44860;53.020;6.738;2023-04-12T12:06:20;13.93;;;3.92;;
59074;SDS011;44860;53.020;6.738;2023-04-12T12:08:48;13.13;;;3.55;;
59074;SDS011;44860;53.020;6.738;2023-04-12T12:11:18;9.80;;;2.90;;
59074;SDS011;44860;53.020;6.738;2023-04-12T12:13:46;14.73;;;3.30;;
59074;SDS011;44860;53.020;6.738;2023-04-12T12:16:13;14.25;;;3.50;;
59074;SDS011;44860;53.020;6.738;2023-04-12T12:18:39;14.13;;;3.15;;
59074;SDS011;44860;53.020;6.738;2023-04-12T12:21:07;10.68;;;3.15;;
59074;SDS011;44860;53.020;6.738;2023-04-12T12:23:34;14.30;;;3.53;;
59074;SDS011;44860;53.020;6.738;2023-04-12T12:26:00;9.93;;;2.83;;
59074;SDS011;44860;53.020;6.738;2023-04-12T12:28:35;14.90;;;3.17;;
59074;SDS011;44860;53.020;6.738;2023-04-12T12:31:10;15.27;;;3.38;;
59074;SDS011;44860;53.020;6.738;2023-04-12T12:33:36;18.63;;;3.53;;
59074;SDS011;44860;53.020;6.738;2023-04-12T12:36:03;12.40;;;2.63;;
59074;SDS011;44860;53.020;6.738;2023-04-12T12:38:33;10.43;;;2.40;;
59074;SDS011;44860;53.020;6.738;2023-04-12T12:41:20;11.95;;;3.00;;
59074;SDS011;44860;53.020;6.738;2023-04-12T12:43:48;11.63;;;3.10;;
59074;SDS011;44860;53.020;6.738;2023-04-12T12:46:15;13.25;;;3.13;;
59074;SDS011;44860;53.020;6.738;2023-04-12T12:48:42;14.52;;;2.90;;
59074;SDS011;44860;53.020;6.738;2023-04-12T12:51:08;13.85;;;3.38;;
59074;SDS011;44860;53.020;6.738;2023-04-12T12:53:35;13.90;;;2.97;;
59074;SDS011;44860;53.020;6.738;2023-04-12T12:56:03;17.35;;;6.15;;
59074;SDS011;44860;53.020;6.738;2023-04-12T12:58:29;9.98;;;3.08;;
59074;SDS011;44860;53.020;6.738;2023-04-12T13:00:54;14.25;;;2.85;;
59074;SDS011;44860;53.020;6.738;2023-04-12T13:03:20;12.13;;;2.90;;
59074;SDS011;44860;53.020;6.738;2023-04-12T13:05:46;10.77;;;2.30;;
59074;SDS011;44860;53.020;6.738;2023-04-12T13:08:12;9.10;;;2.25;;
59074;SDS011;44860;53.020;6.738;2023-04-12T13:10:37;14.13;;;2.72;;
59074;SDS011;44860;53.020;6.738;2023-04-12T13:13:03;15.32;;;3.13;;
59074;SDS011;44860;53.020;6.738;2023-04-12T13:15:28;10.93;;;2.55;;
59074;SDS011;44860;53.020;6.738;2023-04-12T13:17:54;17.73;;;2.95;;
59074;SDS011;44860;53.020;6.738;2023-04-12T13:20:23;9.90;;;2.72;;
59074;SDS011;44860;53.020;6.738;2023-04-12T13:22:49;9.13;;;2.35;;
59074;SDS011;44860;53.020;6.738;2023-04-12T13:25:18;8.68;;;2.30;;
59074;SDS011;44860;53.020;6.738;2023-04-12T13:27:48;17.40;;;2.97;;
59074;SDS011;44860;53.020;6.738;2023-04-12T13:30:16;11.80;;;2.50;;
59074;SDS011;44860;53.020;6.738;2023-04-12T13:32:45;12.45;;;2.35;;
59074;SDS011;44860;53.020;6.738;2023-04-12T13:35:10;10.27;;;2.20;;
59074;SDS011;44860;53.020;6.738;2023-04-12T13:37:36;11.52;;;2.30;;
59074;SDS011;44860;53.020;6.738;2023-04-12T13:40:03;9.82;;;2.13;;
59074;SDS011;44860;53.020;6.738;2023-04-12T13:42:29;10.38;;;2.42;;
59074;SDS011;44860;53.020;6.738;2023-04-12T13:44:54;10.52;;;2.70;;
59074;SDS011;44860;53.020;6.738;2023-04-12T13:47:21;11.52;;;2.38;;
59074;SDS011;44860;53.020;6.738;2023-04-12T13:49:46;13.98;;;2.40;;
59074;SDS011;44860;53.020;6.738;2023-04-12T13:52:12;10.95;;;2.38;;
59074;SDS011;44860;53.020;6.738;2023-04-12T13:54:38;12.35;;;2.58;;
59074;SDS011;44860;53.020;6.738;2023-04-12T13:57:05;10.15;;;2.20;;
59074;SDS011;44860;53.020;6.738;2023-04-12T13:59:31;15.68;;;2.72;;
59074;SDS011;44860;53.020;6.738;2023-04-12T14:01:57;12.43;;;2.58;;
59074;SDS011;44860;53.020;6.738;2023-04-12T14:04:22;10.73;;;2.25;;
59074;SDS011;44860;53.020;6.738;2023-04-12T14:06:51;15.07;;;3.72;;
59074;SDS011;44860;53.020;6.738;2023-04-12T14:09:26;12.43;;;2.40;;
59074;SDS011;44860;53.020;6.738;2023-04-12T14:11:54;10.93;;;2.40;;
59074;SDS011;44860;53.020;6.738;2023-04-12T14:14:24;12.20;;;2.42;;
59074;SDS011;44860;53.020;6.738;2023-04-12T14:16:51;10.07;;;2.55;;
59074;SDS011;44860;53.020;6.738;2023-04-12T14:19:21;8.98;;;2.10;;
59074;SDS011;44860;53.020;6.738;2023-04-12T14:21:47;11.43;;;2.60;;
59074;SDS011;44860;53.020;6.738;2023-04-12T14:24:13;9.65;;;2.22;;
59074;SDS011;44860;53.020;6.738;2023-04-12T14:26:43;9.30;;;2.45;;
59074;SDS011;44860;53.020;6.738;2023-04-12T14:29:09;12.55;;;3.03;;
59074;SDS011;44860;53.020;6.738;2023-04-12T14:31:35;10.13;;;2.58;;
59074;SDS011;44860;53.020;6.738;2023-04-12T14:34:04;11.80;;;2.60;;
59074;SDS011;44860;53.020;6.738;2023-04-12T14:36:32;14.27;;;2.78;;
59074;SDS011;44860;53.020;6.738;2023-04-12T14:38:58;11.95;;;2.55;;
59074;SDS011;44860;53.020;6.738;2023-04-12T14:41:25;9.13;;;1.88;;
59074;SDS011;44860;53.020;6.738;2023-04-12T14:43:51;10.63;;;1.83;;
59074;SDS011;44860;53.020;6.738;2023-04-12T14:46:16;10.45;;;1.92;;
59074;SDS011;44860;53.020;6.738;2023-04-12T14:48:42;10.10;;;2.15;;
59074;SDS011;44860;53.020;6.738;2023-04-12T14:51:08;9.07;;;2.35;;
59074;SDS011;44860;53.020;6.738;2023-04-12T14:53:34;8.55;;;1.92;;
59074;SDS011;44860;53.020;6.738;2023-04-12T14:56:00;7.85;;;1.80;;
59074;SDS011;44860;53.020;6.738;2023-04-12T14:58:27;9.00;;;1.95;;
59074;SDS011;44860;53.020;6.738;2023-04-12T15:00:54;7.68;;;2.08;;
59074;SDS011;44860;53.020;6.738;2023-04-12T15:03:20;7.13;;;2.13;;
59074;SDS011;44860;53.020;6.738;2023-04-12T15:05:46;6.07;;;2.40;;
59074;SDS011;44860;53.020;6.738;2023-04-12T15:08:12;6.18;;;1.88;;
59074;SDS011;44860;53.020;6.738;2023-04-12T15:10:38;6.13;;;1.58;;
59074;SDS011;44860;53.020;6.738;2023-04-12T15:13:03;7.50;;;2.15;;
59074;SDS011;44860;53.020;6.738;2023-04-12T15:15:29;6.72;;;2.00;;
59074;SDS011;44860;53.020;6.738;2023-04-12T15:17:55;6.05;;;1.73;;